Detall de PIREP

Printer-friendly versionPDF version

[2013/12/17 19:22:00]
Flight IATA:CT2300
Pilot Number:044
Company ICAO:CAT
Aircraft Type:BE20/A
PAX:5
Departing Airport: LIEA
Destination Airport: LIBD
Alternate Airport:LIBR
Online: VATSIM
Route:KOLUS M603 SOR M742 BUMOK P748 TOPNO
Flight Level:F180
No Slew and time accel
No pause
Crash detect
Detect pilot in Cockpit between each 30 and 45 minutes
19:22 Zero fuel Weight: 9478 Lbs, Fuel Weight: 2544 Lbs
19:22 VATSIM:LIEA 171850Z VRB01KT CAVOK 05/04 Q1030
19:22 VATSIM:LIBD 171850Z 26005KT 9999 FEW020 08/06 Q1030
19:22 VOICE CATALONIAN
19:23 Parking Brakes off
19:29 Take-off
19:29 Take off Weight: 11994 Lbs
19:29 Wind: 321º @ 001 Knots Heading: 202º
19:29 POS N40º 37´ 56´´ E008º 17´ 27´´
19:29 Flaps:1 at 132 Knots
19:29 Gear Up: 135 Knots
19:30 Flaps:0 at 144 Knots
19:44 Wind:093º@005 Knots Heading: 060º Ground Speed: 191 Knots Altitude 16843 ft
19:45 TOC
19:45Fuel Weight: 2319 Lb
19:51 TOD
19:51 Fuel Weight: 2251 Lb
19:59 Wind:226º@014 Knots Heading: 087º Ground Speed: 262 Knots Altitude 18113 ft
20:14 Wind:045º@004 Knots Heading: 085º Ground Speed: 250 Knots Altitude 18083 ft
20:29 Wind:047º@006 Knots Heading: 084º Ground Speed: 248 Knots Altitude 18077 ft
20:44 Wind:337º@001 Knots Heading: 103º Ground Speed: 257 Knots Altitude 18067 ft
20:59 Wind:113º@015 Knots Heading: 083º Ground Speed: 245 Knots Altitude 18054 ft
21:14 Wind:260º@011 Knots Heading: 068º Ground Speed: 200 Knots Altitude 6528 ft
21:17 Flaps:1 at 156 Knots
21:19 Flaps:2 at 131 Knots
21:19 Gear Down: 126 Knots
21:23 TouchDown:Rate -195 ft/min Speed: 116 Knots
21:23 VATSIM:LIBD 172050Z 26005KT CAVOK 07/06 Q1030
21:23 Land
21:23 Wind:258º@005 Knots
21:23 Heading: 251º
21:23 Flight Duration: 01:54
21:23 Landing Weight: 10805 Lbs
21:23 POS N41º 08´14´´ E016º 45´ 23´´
21:27 Parking brakes on
21:27 Block to Block Duration: 02:04
21:27 Final Fuel: 1307 Lbls
21:27 Spent Fuel: 1236 Lbls
21:27 Flight Length: 440 NM
21:27 TOD Land Length: 370 NM

Exportar CSV

Powered by Drupal - Modified by Danger4k